Mac Dill Air Force Base Tampa US
ICAO: KMCF
IATA: MCF
Category: Large
Scheduled Services: No

Elevation: 14 ft
TransAlt. 18000 ft.

Airport Communications:
TAMPA APP:124.95
ATIS:133.825
TAMPA DEP:119.65
GND:118.575
PMSV METRO:34.46
6 AMW COMD POST:138.95
PTD:37.22
TWR:123.7

KMCF Zoom In..

If you have problems with the map follow the link
https://www.worldairports.se/pages/airport.php?
ICAO=KMCF

Runways:

(A) RW 04 length 11421 ft width 151 ft
ILS 109.50 / hdg 45

(B) RW 22 length 11421 ft width 151 ft
ILS 111.70 / hdg 225

Location; KMCF
Day. 07 / Time. 08.21 Zulu
* Altimeter: 30.13
* Temperature: 09° c. 48.2°f.
* Wind from: 000° Speed 00 kn.
Dewpoint: 08° c.
Visibility: 3 Statute Miles.
Clouds: Clear (automated report).
Conditions: Mist.

KMCF 070821Z AUTO 00000KT 3SM BR CLR 09/08 A3013 RMK AO2 SLP206 FZRANO $


Wind - Calm.

 
 
jpsmedia worldairports.se 2019   terms of use